Time;durP1;ratioP1;P1;durP2;ratioP2;P2;SDS_P1;SDS_P2;PMS_P1;PMS_P2;Temp;Humidity;BMP_temperature;BMP_pressure;BME280_temperature;BME280_humidity;BME280_pressure;Samples;Min_cycle;Max_cycle;Signal;HPM_P1;HPM_P2
2022/06/17 00:01:17;;;;;;;2.47;1.80;;;;;;;15.23;100.00;100459.03;5530244;32;33888;-71
2022/06/17 00:04:20;;;;;;;2.97;1.60;;;;;;;15.18;100.00;100458.78;5530897;32;34738;-71
2022/06/17 00:07:23;;;;;;;4.97;2.00;;;;;;;15.15;100.00;100461.88;5530419;32;34639;-71
2022/06/17 00:10:26;;;;;;;3.78;1.87;;;;;;;15.25;100.00;100458.84;5530470;32;34005;-71
2022/06/17 00:13:30;;;;;;;3.55;1.80;;;;;;;15.32;100.00;100460.53;5530425;32;34655;-72
2022/06/17 00:16:32;;;;;;;3.87;1.70;;;;;;;15.30;100.00;100467.91;5530363;32;34743;-71
2022/06/17 00:19:35;;;;;;;3.40;2.45;;;;;;;15.25;100.00;100474.87;5530422;32;34331;-71
2022/06/17 00:22:41;;;;;;;2.72;1.85;;;;;;;15.16;100.00;100477.69;5530255;32;33948;-71
2022/06/17 00:25:48;;;;;;;3.00;2.20;;;;;;;15.15;100.00;100483.25;5530430;32;33904;-71
2022/06/17 00:28:51;;;;;;;2.53;1.62;;;;;;;15.13;100.00;100488.78;5529951;32;33871;-68
2022/06/17 00:31:54;;;;;;;4.72;2.00;;;;;;;15.38;100.00;100491.84;5530086;32;34007;-69
2022/06/17 00:34:57;;;;;;;2.22;1.62;;;;;;;15.65;100.00;100487.47;5529117;32;34141;-69
2022/06/17 00:38:01;;;;;;;2.85;1.80;;;;;;;15.64;100.00;100496.50;5530299;32;35263;-70
2022/06/17 00:41:25;;;;;;;4.28;1.87;;;;;;;15.60;100.00;100489.91;5529912;32;34016;-68
2022/06/17 00:44:53;;;;;;;3.17;1.70;;;;;;;15.67;100.00;100479.25;5531569;32;33904;-68
2022/06/17 00:48:07;;;;;;;2.40;1.87;;;;;;;15.52;100.00;100490.09;5531599;32;34018;-69
2022/06/17 00:51:16;;;;;;;1.87;1.45;;;;;;;15.44;100.00;100501.72;5532274;32;34418;-69
2022/06/17 00:54:43;;;;;;;2.10;1.40;;;;;;;15.31;100.00;100490.94;5532776;32;34671;-69
2022/06/17 00:57:46;;;;;;;3.33;1.60;;;;;;;15.17;100.00;100490.03;5531982;32;33888;-69
2022/06/17 01:00:53;;;;;;;2.65;1.50;;;;;;;15.10;100.00;100481.13;5532284;32;35192;-69
2022/06/17 01:04:01;;;;;;;2.00;1.50;;;;;;;15.07;100.00;100488.72;5532236;32;34678;-70
2022/06/17 01:07:21;;;;;;;2.37;1.52;;;;;;;15.02;100.00;100483.12;5532161;32;34349;-69
2022/06/17 01:10:25;;;;;;;2.83;1.70;;;;;;;14.93;100.00;100477.09;5532459;32;33907;-69
2022/06/17 01:13:28;;;;;;;1.42;1.30;;;;;;;15.16;100.00;100477.69;5532214;32;34149;-68
2022/06/17 01:16:34;;;;;;;2.33;1.33;;;;;;;15.24;100.00;100479.41;5532252;32;33971;-69
2022/06/17 01:19:42;;;;;;;2.70;1.70;;;;;;;15.17;100.00;100482.03;5532405;32;34565;-69
2022/06/17 01:22:55;;;;;;;3.75;1.48;;;;;;;15.11;100.00;100488.13;5532275;32;34019;-71
2022/06/17 01:25:58;;;;;;;2.33;1.70;;;;;;;15.09;100.00;100476.00;5532115;32;34730;-69
2022/06/17 01:29:01;;;;;;;2.30;1.50;;;;;;;15.03;100.00;100482.13;5532095;32;34703;-69
2022/06/17 01:32:04;;;;;;;1.60;1.40;;;;;;;14.99;100.00;100491.53;5531242;32;32527;-69
2022/06/17 01:35:09;;;;;;;5.78;1.92;;;;;;;15.08;100.00;100487.72;5532283;32;34697;-69
2022/06/17 01:38:13;;;;;;;4.43;1.90;;;;;;;14.98;100.00;100488.03;5531132;32;34256;-69
2022/06/17 01:41:19;;;;;;;2.30;1.55;;;;;;;14.95;100.00;100492.97;5531913;32;34658;-69
2022/06/17 01:44:26;;;;;;;2.85;1.65;;;;;;;15.07;100.00;100494.87;5531860;32;34030;-69
2022/06/17 01:47:31;;;;;;;2.30;1.77;;;;;;;15.01;100.00;100505.50;5531117;32;34660;-69
2022/06/17 01:50:36;;;;;;;2.12;1.77;;;;;;;14.82;100.00;100508.84;5531854;32;34018;-69
2022/06/17 01:53:45;;;;;;;5.65;2.28;;;;;;;14.75;100.00;100512.31;5531795;32;34329;-69
2022/06/17 01:56:51;;;;;;;4.97;2.30;;;;;;;14.86;100.00;100507.47;5530909;32;35222;-69
2022/06/17 01:59:59;;;;;;;2.65;1.77;;;;;;;14.81;100.00;100517.91;5531678;32;34012;-69
2022/06/17 02:03:13;;;;;;;;;;;;;;;14.87;100.00;100523.28;5532385;32;34333;-69
2022/06/17 02:06:44;;;;;;;2.37;1.58;;;;;;;14.93;100.00;100527.88;5531848;32;34577;-69
2022/06/17 02:09:47;;;;;;;4.55;1.80;;;;;;;15.01;100.00;100524.22;5531564;32;34168;-69
2022/06/17 02:12:52;;;;;;;2.30;1.40;;;;;;;15.07;100.00;100531.47;5532014;32;34533;-69
2022/06/17 02:15:59;;;;;;;2.55;1.35;;;;;;;15.09;100.00;100535.63;5531675;32;33998;-69
2022/06/17 02:19:04;;;;;;;3.15;1.80;;;;;;;15.19;100.00;100533.44;5531584;32;34707;-68
2022/06/17 02:22:15;;;;;;;2.90;1.60;;;;;;;15.30;100.00;100532.06;5531560;32;34076;-69
2022/06/17 02:25:24;;;;;;;3.90;1.35;;;;;;;15.29;100.00;100529.59;5531890;32;34636;-69
2022/06/17 02:28:29;;;;;;;2.75;1.48;;;;;;;15.34;100.00;100527.16;5531450;32;34661;-68
2022/06/17 02:31:33;;;;;;;2.37;1.52;;;;;;;15.39;100.00;100532.75;5531457;32;35233;-68
2022/06/17 02:34:54;;;;;;;4.25;1.80;;;;;;;15.47;100.00;100530.75;5531399;32;34708;-68
2022/06/17 02:37:58;;;;;;;4.87;1.80;;;;;;;15.41;100.00;100534.19;5531709;32;34012;-69
2022/06/17 02:41:06;;;;;;;3.55;1.80;;;;;;;15.40;100.00;100535.22;5531708;32;34926;-67
2022/06/17 02:44:16;;;;;;;4.18;2.10;;;;;;;15.42;100.00;100532.34;5531566;32;34318;-68
2022/06/17 02:47:20;;;;;;;;;;;;;;;15.43;100.00;100534.00;5531642;32;33893;-67
2022/06/17 02:50:26;;;;;;;2.87;1.80;;;;;;;15.51;100.00;100528.53;5531342;32;34227;-68
2022/06/17 02:53:36;;;;;;;4.72;1.50;;;;;;;15.60;100.00;100546.06;5531196;32;34722;-69
2022/06/17 02:56:43;;;;;;;;;;;;;;;15.65;100.00;100544.47;5531626;32;33971;-67
2022/06/17 03:00:11;;;;;;;3.45;1.90;;;;;;;15.79;100.00;100550.72;5531407;32;34296;-67
2022/06/17 03:03:16;;;;;;;5.18;1.87;;;;;;;15.84;100.00;100547.44;5531225;32;35183;-68
2022/06/17 03:06:30;;;;;;;3.30;1.98;;;;;;;15.71;100.00;100544.72;5530642;32;34861;-67
2022/06/17 03:09:36;;;;;;;3.28;2.00;;;;;;;15.63;100.00;100545.72;5531318;32;34672;-68
2022/06/17 03:12:39;;;;;;;2.35;1.70;;;;;;;15.58;100.00;100540.12;5530938;32;34202;-67
2022/06/17 03:15:45;;;;;;;2.15;1.77;;;;;;;15.51;100.00;100537.38;5531168;32;35204;-67
2022/06/17 03:18:49;;;;;;;2.83;1.80;;;;;;;15.49;100.00;100541.25;5531109;32;34590;-67
2022/06/17 03:21:53;;;;;;;5.45;2.03;;;;;;;15.54;100.00;100542.34;5531032;32;33981;-68
2022/06/17 03:25:12;;;;;;;2.00;1.60;;;;;;;15.54;100.00;100538.87;5530529;32;34186;-68
2022/06/17 03:28:22;;;;;;;4.90;2.00;;;;;;;15.56;100.00;100542.97;5531031;32;34595;-67
2022/06/17 03:31:52;;;;;;;3.45;2.37;;;;;;;15.54;100.00;100544.22;5531250;32;34411;-68
2022/06/17 03:34:55;;;;;;;2.28;1.60;;;;;;;15.67;100.00;100552.31;5530921;32;34643;-67
2022/06/17 03:38:02;;;;;;;2.42;1.70;;;;;;;15.69;100.00;100558.25;5530940;32;34080;-68
2022/06/17 03:41:20;;;;;;;3.37;1.70;;;;;;;15.80;100.00;100559.56;5530781;32;34358;-69
2022/06/17 03:44:32;;;;;;;4.53;1.60;;;;;;;15.90;100.00;100562.72;5530593;32;34494;-69
2022/06/17 03:48:01;;;;;;;2.42;1.40;;;;;;;16.01;100.00;100576.37;5530688;32;35240;-70
2022/06/17 03:51:10;;;;;;;1.80;1.50;;;;;;;16.15;100.00;100577.25;5530739;32;34040;-69
2022/06/17 03:54:14;;;;;;;3.33;1.60;;;;;;;16.23;100.00;100576.25;5530217;32;34830;-69
2022/06/17 03:57:17;;;;;;;3.70;1.70;;;;;;;16.32;100.00;100583.06;5530992;32;35254;-68
2022/06/17 04:00:34;;;;;;;2.75;1.60;;;;;;;16.44;100.00;100581.50;5530423;32;33866;-69
2022/06/17 04:03:42;;;;;;;3.25;1.90;;;;;;;16.58;100.00;100585.87;5530566;32;34077;-68
2022/06/17 04:06:47;;;;;;;2.33;1.70;;;;;;;16.73;100.00;100591.91;5530691;32;33918;-68
2022/06/17 04:09:53;;;;;;;2.37;1.77;;;;;;;16.76;100.00;100599.53;5529899;32;33941;-69
2022/06/17 04:12:57;;;;;;;5.30;1.90;;;;;;;16.87;100.00;100601.62;5530337;32;33968;-68
2022/06/17 04:16:18;;;;;;;6.20;1.70;;;;;;;17.09;99.71;100596.09;5529829;32;34895;-68
2022/06/17 04:19:24;;;;;;;2.15;1.60;;;;;;;17.27;98.24;100594.47;5531533;32;34291;-68
2022/06/17 04:22:33;;;;;;;2.08;1.50;;;;;;;17.33;95.63;100585.56;5532653;32;33961;-68
2022/06/17 04:25:50;;;;;;;;;;;;;;;17.22;97.05;100594.25;5532944;32;34307;-67
2022/06/17 04:29:07;;;;;;;3.87;1.95;;;;;;;17.18;97.25;100595.69;5532559;32;34220;-68
2022/06/17 04:32:15;;;;;;;2.97;2.05;;;;;;;17.04;99.49;100601.25;5532741;32;34007;-68
2022/06/17 04:35:19;;;;;;;4.60;2.05;;;;;;;17.02;99.61;100601.44;5532981;32;33960;-68
2022/06/17 04:38:24;;;;;;;4.60;1.90;;;;;;;17.01;100.00;100597.09;5531700;32;34558;-67
2022/06/17 04:41:32;;;;;;;3.72;2.40;;;;;;;17.08;100.00;100597.13;5532305;32;34635;-68
2022/06/17 04:44:36;;;;;;;3.78;1.70;;;;;;;17.27;100.00;100599.81;5532618;32;34030;-69
2022/06/17 04:47:39;;;;;;;3.95;2.10;;;;;;;17.35;99.55;100580.84;5532227;32;34213;-69
2022/06/17 04:50:43;;;;;;;3.37;2.08;;;;;;;17.41;99.42;100594.44;5532623;32;34367;-69
2022/06/17 04:53:48;;;;;;;4.12;1.95;;;;;;;17.39;99.08;100586.59;5532396;32;35280;-69
2022/06/17 04:56:53;;;;;;;2.22;1.73;;;;;;;17.38;100.00;100587.62;5532527;32;34389;-68
2022/06/17 05:00:00;;;;;;;3.62;2.12;;;;;;;17.33;100.00;100580.22;5532182;32;33985;-69
2022/06/17 05:03:05;;;;;;;4.32;1.90;;;;;;;17.41;100.00;100589.91;5532034;32;34184;-69
2022/06/17 05:06:09;;;;;;;3.37;2.12;;;;;;;17.45;99.82;100583.09;5532212;32;34033;-69
2022/06/17 05:09:18;;;;;;;2.58;1.90;;;;;;;17.39;100.00;100576.69;5531734;32;34019;-68
2022/06/17 05:12:33;;;;;;;4.18;2.20;;;;;;;17.33;100.00;100587.47;5532189;32;33972;-70
2022/06/17 05:15:37;;;;;;;2.78;2.30;;;;;;;17.46;100.00;100589.28;5532082;32;33990;-68
2022/06/17 05:18:40;;;;;;;2.92;1.95;;;;;;;17.57;100.00;100588.69;5531809;32;34903;-68
2022/06/17 05:21:43;;;;;;;4.37;2.45;;;;;;;17.57;97.68;100592.16;5531932;32;34614;-68
2022/06/17 05:24:47;;;;;;;3.50;2.30;;;;;;;17.55;97.08;100596.91;5531638;32;34533;-68
2022/06/17 05:27:49;;;;;;;5.57;2.12;;;;;;;17.75;96.47;100595.06;5531848;32;34528;-69
2022/06/17 05:30:55;;;;;;;6.32;2.33;;;;;;;17.86;94.01;100595.47;5531780;32;33897;-69
2022/06/17 05:34:03;;;;;;;9.15;2.33;;;;;;;18.16;93.32;100602.81;5531791;32;34164;-69
2022/06/17 05:37:06;;;;;;;4.43;2.60;;;;;;;18.09;92.14;100596.66;5531793;32;33893;-67
2022/06/17 05:40:09;;;;;;;3.05;2.33;;;;;;;18.27;91.91;100595.94;5531910;32;34018;-68
2022/06/17 05:43:13;;;;;;;3.75;2.25;;;;;;;18.48;91.87;100605.59;5531742;32;34205;-68
2022/06/17 05:46:18;;;;;;;8.27;2.25;;;;;;;18.64;90.70;100605.94;5531224;32;33932;-68
2022/06/17 05:49:21;;;;;;;4.50;1.98;;;;;;;18.72;89.65;100607.56;5530996;32;34099;-67
2022/06/17 05:52:26;;;;;;;2.75;1.80;;;;;;;18.95;89.35;100610.50;5531039;32;34466;-68
2022/06/17 05:55:32;;;;;;;5.32;1.98;;;;;;;19.17;87.52;100613.66;5531089;32;34461;-68
2022/06/17 05:58:34;;;;;;;3.20;1.90;;;;;;;19.47;86.05;100633.53;5531031;32;33955;-68
2022/06/17 06:01:38;;;;;;;3.10;1.90;;;;;;;19.18;86.02;100630.63;5531717;32;33999;-67
2022/06/17 06:04:41;;;;;;;3.35;1.80;;;;;;;19.35;85.92;100640.66;5531495;32;34713;-71
2022/06/17 06:07:44;;;;;;;3.22;1.77;;;;;;;19.59;84.69;100648.97;5531355;32;33862;-67
2022/06/17 06:10:49;;;;;;;4.65;2.08;;;;;;;19.73;83.45;100643.25;5531064;32;34007;-68
2022/06/17 06:13:54;;;;;;;2.85;1.58;;;;;;;19.97;81.50;100641.56;5531046;32;34165;-68
2022/06/17 06:16:57;;;;;;;2.85;1.80;;;;;;;19.97;81.13;100649.66;5530539;32;34003;-69
2022/06/17 06:20:00;;;;;;;3.80;1.52;;;;;;;20.12;81.04;100647.44;5531670;32;35462;-69
2022/06/17 06:23:04;;;;;;;4.32;1.73;;;;;;;20.33;79.72;100644.31;5530482;32;34565;-69
2022/06/17 06:26:10;;;;;;;2.45;1.65;;;;;;;20.47;78.70;100647.69;5517983;32;34006;-66
2022/06/17 06:29:13;;;;;;;4.93;1.70;;;;;;;20.69;78.34;100653.41;5531328;32;34367;-67
2022/06/17 06:32:16;;;;;;;5.95;1.62;;;;;;;20.57;78.75;100656.06;5531234;32;34180;-68
2022/06/17 06:35:24;;;;;;;2.47;1.60;;;;;;;20.30;79.71;100657.37;5531563;32;34329;-69
2022/06/17 06:38:28;;;;;;;4.15;1.62;;;;;;;20.56;77.80;100667.06;5531596;32;34710;-67
2022/06/17 06:41:31;;;;;;;3.60;1.85;;;;;;;20.29;79.55;100658.41;5529927;32;34231;-68
2022/06/17 06:44:33;;;;;;;2.58;1.55;;;;;;;20.16;79.65;100664.78;5532254;32;34427;-69
2022/06/17 06:47:39;;;;;;;2.95;1.70;;;;;;;20.24;78.04;100661.78;5531517;32;33888;-67
2022/06/17 06:50:42;;;;;;;4.05;1.60;;;;;;;20.00;80.00;100673.44;5530789;32;34152;-67
2022/06/17 06:53:45;;;;;;;2.00;1.40;;;;;;;19.88;80.33;100672.53;5530669;32;34058;-67
2022/06/17 06:56:48;;;;;;;2.58;1.40;;;;;;;19.85;80.04;100675.66;5530954;32;34665;-67
2022/06/17 07:00:07;;;;;;;3.55;1.55;;;;;;;20.21;78.20;100678.41;5531448;32;34003;-65
2022/06/17 07:03:11;;;;;;;2.53;1.80;;;;;;;20.17;78.44;100674.53;5530792;32;34084;-66
2022/06/17 07:06:15;;;;;;;5.43;1.70;;;;;;;20.61;76.46;100678.00;5530641;32;34427;-66
2022/06/17 07:09:19;;;;;;;4.22;1.75;;;;;;;20.47;78.25;100674.66;5530837;32;34753;-66
2022/06/17 07:12:22;;;;;;;5.68;1.40;;;;;;;20.66;76.62;100678.16;5517766;32;34024;-67
2022/06/17 07:15:27;;;;;;;4.78;1.70;;;;;;;20.57;76.72;100677.63;5531127;32;34382;-67
2022/06/17 07:18:33;;;;;;;2.87;1.45;;;;;;;20.95;74.95;100684.63;5530627;32;34741;-66
2022/06/17 07:21:42;;;;;;;2.90;1.60;;;;;;;21.44;72.63;100681.66;5530803;32;34917;-67
2022/06/17 07:24:45;;;;;;;5.53;1.48;;;;;;;21.12;71.98;100686.44;5530159;32;34698;-67
2022/06/17 07:27:48;;;;;;;2.40;1.48;;;;;;;21.29;72.94;100691.22;5529765;32;34773;-67
2022/06/17 07:30:52;;;;;;;3.78;1.83;;;;;;;21.43;72.26;100685.41;5530829;32;34741;-67
2022/06/17 07:33:57;;;;;;;2.90;1.70;;;;;;;21.76;69.96;100682.16;5530782;32;33983;-66
2022/06/17 07:40:22;;;;;;;1.77;1.10;;;;;;;22.41;67.70;100690.16;5530753;32;34582;-67
2022/06/17 07:43:25;;;;;;;3.62;1.15;;;;;;;22.74;62.39;100692.22;5529669;32;33332;-68
2022/06/17 07:46:34;;;;;;;2.22;1.25;;;;;;;22.50;64.05;100699.53;5531022;32;34218;-68
2022/06/17 07:49:38;;;;;;;1.48;1.12;;;;;;;22.53;62.26;100699.06;5530178;32;32659;-67
2022/06/17 07:52:43;;;;;;;2.53;1.35;;;;;;;22.61;63.70;100697.87;5529544;32;34300;-67
2022/06/17 07:55:46;;;;;;;5.62;1.30;;;;;;;23.43;61.05;100703.81;5530753;32;35343;-68
2022/06/17 07:58:49;;;;;;;2.22;1.27;;;;;;;24.10;58.34;100691.09;5530193;32;34045;-67
2022/06/17 08:01:52;;;;;;;2.10;1.20;;;;;;;24.46;56.19;100706.81;5529993;32;32649;-67
2022/06/17 08:04:56;;;;;;;1.42;1.08;;;;;;;24.79;55.27;100707.75;5530587;32;34302;-66
2022/06/17 08:08:03;;;;;;;2.00;0.95;;;;;;;25.55;52.16;100697.75;5530489;32;34296;-67
2022/06/17 08:11:07;;;;;;;2.55;0.95;;;;;;;24.93;50.35;100703.62;5529334;32;32666;-67
2022/06/17 08:14:10;;;;;;;2.62;1.30;;;;;;;25.22;48.99;100698.78;5529764;32;33374;-67
2022/06/17 08:17:18;;;;;;;2.37;0.93;;;;;;;26.38;46.81;100708.69;5530043;32;35172;-67
2022/06/17 08:20:30;;;;;;;1.65;1.20;;;;;;;26.03;45.48;100702.22;5530065;32;34089;-67
2022/06/17 08:23:33;;;;;;;1.58;1.00;;;;;;;25.92;46.01;100712.19;5529598;32;34153;-68
2022/06/17 08:26:36;;;;;;;1.60;1.00;;;;;;;26.06;46.83;100707.13;5529764;32;34143;-67
2022/06/17 08:29:39;;;;;;;2.00;1.05;;;;;;;26.99;43.74;100706.28;5529846;32;34278;-66
2022/06/17 08:32:53;;;;;;;4.35;1.10;;;;;;;27.20;42.44;100702.53;5528770;32;34180;-67
2022/06/17 08:36:01;;;;;;;1.90;1.10;;;;;;;28.66;40.73;100702.69;5529864;32;35142;-68
2022/06/17 08:39:08;;;;;;;2.90;1.17;;;;;;;29.91;38.49;100702.19;5529844;32;33926;-68
2022/06/17 08:42:25;;;;;;;3.10;1.10;;;;;;;29.04;37.86;100698.41;5529380;32;33994;-67
2022/06/17 08:45:52;;;;;;;2.58;0.80;;;;;;;29.69;35.72;100702.59;5529412;32;34603;-66
2022/06/17 08:49:15;;;;;;;1.83;1.10;;;;;;;28.57;34.82;100696.97;5529294;32;34704;-68
2022/06/17 08:52:37;;;;;;;4.30;0.95;;;;;;;27.65;38.60;100693.56;5529251;32;34033;-69
2022/06/17 08:55:57;;;;;;;2.28;1.00;;;;;;;28.54;34.90;100708.44;5529494;32;34600;-68
2022/06/17 08:59:14;;;;;;;1.73;1.02;;;;;;;27.96;37.26;100708.00;5529157;32;34647;-68
2022/06/17 09:02:20;;;;;;;5.87;1.10;;;;;;;29.09;36.25;100723.78;5528830;32;33974;-68
2022/06/17 09:05:41;;;;;;;2.33;1.12;;;;;;;30.30;36.31;100721.22;5531006;32;33578;-69
2022/06/17 09:08:58;;;;;;;3.05;1.10;;;;;;;29.18;38.18;100718.56;5531561;32;34863;-68
2022/06/17 09:12:11;;;;;;;2.37;1.20;;;;;;;31.67;34.94;100718.31;5531233;32;34960;-69
2022/06/17 09:15:37;;;;;;;2.53;1.15;;;;;;;30.05;32.87;100720.38;5531627;32;34733;-68
2022/06/17 09:18:46;;;;;;;1.90;1.00;;;;;;;29.54;32.83;100724.59;5531269;32;34769;-68
2022/06/17 09:21:52;;;;;;;1.27;1.05;;;;;;;30.33;33.03;100726.09;5531430;32;34247;-67
2022/06/17 09:25:04;;;;;;;2.62;1.00;;;;;;;29.69;33.28;100716.28;5530964;32;33919;-67
2022/06/17 09:28:21;;;;;;;2.90;1.45;;;;;;;31.16;31.00;100722.91;5531508;32;34121;-67
2022/06/17 09:31:40;;;;;;;4.28;1.20;;;;;;;31.08;30.96;100729.91;5531601;32;33895;-67
2022/06/17 09:35:04;;;;;;;5.00;1.17;;;;;;;31.41;30.08;100722.56;5531580;32;34731;-68
2022/06/17 09:38:20;;;;;;;2.53;1.20;;;;;;;29.96;31.34;100727.56;5530782;32;32875;-69
2022/06/17 09:41:30;;;;;;;1.85;1.10;;;;;;;30.44;30.45;100725.72;5531241;32;33955;-69
2022/06/17 09:44:53;;;;;;;3.12;1.15;;;;;;;30.67;30.29;100735.03;5531463;32;34630;-68
2022/06/17 09:48:15;;;;;;;3.25;1.15;;;;;;;32.02;29.49;100738.00;5531812;32;34372;-69
2022/06/17 09:51:26;;;;;;;1.10;1.00;;;;;;;32.87;28.87;100741.09;5530774;32;34258;-68
2022/06/17 09:54:55;;;;;;;1.55;1.00;;;;;;;32.75;28.10;100743.53;5531740;32;35325;-67
2022/06/17 09:58:39;;;;;;;3.00;1.25;;;;;;;31.74;28.86;100750.84;5531284;32;33971;-67
2022/06/17 10:01:48;;;;;;;1.83;1.00;;;;;;;34.22;26.88;100749.19;5530833;32;34093;-68
2022/06/17 10:04:55;;;;;;;2.20;1.30;;;;;;;31.18;30.85;100754.41;5518563;32;33818;-68
2022/06/17 10:08:25;;;;;;;1.65;1.10;;;;;;;29.12;33.19;100752.47;5531948;32;33895;-68
2022/06/17 10:11:52;;;;;;;2.60;1.08;;;;;;;30.39;33.17;100753.16;5531149;32;34539;-68
2022/06/17 10:15:26;;;;;;;1.80;1.00;;;;;;;31.29;30.83;100746.84;5531140;32;34049;-67
2022/06/17 10:18:47;;;;;;;2.40;1.30;;;;;;;31.46;31.03;100750.72;5531718;32;34450;-67
2022/06/17 10:22:02;;;;;;;2.08;1.42;;;;;;;28.64;36.66;100754.00;5531225;32;34609;-67
2022/06/17 10:25:20;;;;;;;2.53;1.40;;;;;;;28.09;37.48;100762.00;5531436;32;34082;-69
2022/06/17 10:28:32;;;;;;;3.90;1.85;;;;;;;26.31;43.52;100764.44;5526346;32;161315;-67
2022/06/17 10:31:44;;;;;;;2.85;1.40;;;;;;;26.39;44.37;100764.75;5531202;32;33892;-69
2022/06/17 10:34:52;;;;;;;1.75;1.33;;;;;;;26.28;46.19;100760.34;5530512;32;33445;-68
2022/06/17 10:37:58;;;;;;;4.20;1.80;;;;;;;26.07;46.37;100763.97;5530991;32;34014;-67
2022/06/17 10:41:02;;;;;;;2.55;1.70;;;;;;;25.64;46.41;100764.97;5518549;32;34045;-66
2022/06/17 10:44:10;;;;;;;2.58;1.60;;;;;;;26.87;43.80;100770.22;5531220;32;35310;-68
2022/06/17 10:47:39;;;;;;;5.97;1.55;;;;;;;26.51;42.80;100763.75;5531384;32;34260;-66
2022/06/17 10:50:42;;;;;;;;;;;;;;;26.48;41.81;100758.84;5531761;32;34020;-68
2022/06/17 10:53:58;;;;;;;2.37;1.30;;;;;;;26.25;37.64;100757.31;5531500;32;34808;-67
2022/06/17 10:57:05;;;;;;;3.55;1.50;;;;;;;27.39;34.52;100761.94;5531559;32;33918;-68
2022/06/17 11:00:25;;;;;;;3.78;1.50;;;;;;;29.56;30.07;100771.63;5530306;32;34158;-67
2022/06/17 11:03:41;;;;;;;2.20;1.48;;;;;;;31.01;28.72;100767.75;5530876;32;33934;-67
2022/06/17 11:06:59;;;;;;;2.90;1.40;;;;;;;32.01;28.18;100764.62;5530778;32;34490;-68
2022/06/17 11:10:11;;;;;;;2.60;1.48;;;;;;;30.77;31.43;100766.97;5530230;32;33886;-68
2022/06/17 11:13:15;;;;;;;4.82;1.42;;;;;;;32.41;29.04;100765.87;5531414;32;33987;-69
2022/06/17 11:16:21;;;;;;;3.05;1.50;;;;;;;31.37;30.41;100751.69;5517826;32;34335;-67
2022/06/17 11:19:26;;;;;;;2.20;1.40;;;;;;;31.59;29.48;100756.56;5517839;32;34204;-67
2022/06/17 11:22:31;;;;;;;6.10;1.60;;;;;;;30.12;31.91;100764.62;5531259;32;33947;-67
2022/06/17 11:25:38;;;;;;;3.35;1.73;;;;;;;29.26;34.40;100762.47;5530034;32;33283;-66
2022/06/17 11:28:49;;;;;;;2.42;1.40;;;;;;;28.10;34.57;100766.37;5530563;32;33846;-67
2022/06/17 11:31:53;;;;;;;2.85;1.50;;;;;;;27.28;35.97;100768.44;5530952;32;34404;-67
2022/06/17 11:35:01;;;;;;;4.53;1.70;;;;;;;27.00;37.32;100772.44;5530811;32;34476;-65
2022/06/17 11:38:13;;;;;;;5.62;1.60;;;;;;;27.20;35.56;100767.06;5529992;32;34874;-65
2022/06/17 11:41:36;;;;;;;2.85;1.62;;;;;;;28.23;33.53;100761.47;5530687;32;34056;-65
2022/06/17 11:44:47;;;;;;;4.00;1.55;;;;;;;30.52;31.29;100754.38;5530946;32;34587;-65
2022/06/17 11:48:14;;;;;;;4.60;1.75;;;;;;;30.61;32.00;100764.41;5518261;32;34693;-65
2022/06/17 11:51:29;;;;;;;2.40;1.58;;;;;;;31.17;31.57;100760.19;5530745;32;34276;-67
2022/06/17 11:54:52;;;;;;;5.85;1.60;;;;;;;31.73;29.97;100761.00;5528301;32;35208;-66
2022/06/17 11:57:55;;;;;;;;;;;;;;;32.60;27.99;100758.34;5531020;32;33944;-66
2022/06/17 12:01:16;;;;;;;2.42;1.27;;;;;;;31.14;30.14;100747.88;5530964;32;35303;-67
2022/06/17 12:04:40;;;;;;;4.28;1.70;;;;;;;33.14;26.50;100741.03;5517070;32;32831;-66
2022/06/17 12:08:04;;;;;;;1.90;1.30;;;;;;;34.21;26.36;100735.72;5530510;32;35307;-67
2022/06/17 12:11:13;;;;;;;5.93;1.30;;;;;;;34.52;25.39;100738.44;5530807;32;34610;-66
2022/06/17 12:14:59;;;;;;;2.40;1.40;;;;;;;35.88;25.48;100736.97;5530316;32;34613;-65
2022/06/17 12:18:15;;;;;;;1.75;1.10;;;;;;;34.71;25.54;100731.53;5530491;32;33973;-67
2022/06/17 12:21:21;;;;;;;3.05;1.48;;;;;;;35.48;23.83;100728.09;5529514;32;33707;-66
2022/06/17 12:24:33;;;;;;;2.75;1.37;;;;;;;33.61;26.01;100725.91;5530158;32;34082;-66
2022/06/17 12:27:41;;;;;;;2.47;1.37;;;;;;;34.29;26.40;100721.97;5530044;32;33934;-66
2022/06/17 12:31:26;;;;;;;1.83;1.17;;;;;;;36.11;23.80;100716.31;5529941;32;34789;-66
2022/06/17 12:35:06;;;;;;;2.17;1.15;;;;;;;34.63;25.71;100709.44;5530305;32;33983;-66
2022/06/17 12:38:35;;;;;;;2.67;1.30;;;;;;;35.95;24.00;100700.59;5530078;32;34566;-65
2022/06/17 12:42:12;;;;;;;5.28;1.42;;;;;;;35.34;24.15;100707.34;5532282;32;34047;-65
2022/06/17 12:45:40;;;;;;;6.05;1.40;;;;;;;34.74;25.85;100699.78;5532221;32;34612;-67
2022/06/17 12:53:17;;;;;;;1.50;1.20;;;;;;;30.88;30.36;100713.69;5531943;32;34646;-66
2022/06/17 12:56:29;;;;;;;2.25;1.00;;;;;;;30.47;29.66;100711.47;5531530;32;32611;-67
2022/06/17 13:00:06;;;;;;;1.52;1.10;;;;;;;31.68;27.96;100702.66;5532043;32;34026;-67
2022/06/17 13:03:35;;;;;;;2.60;1.25;;;;;;;35.27;23.75;100700.34;5532106;32;33959;-68
2022/06/17 13:06:57;;;;;;;3.80;1.10;;;;;;;35.12;23.02;100697.22;5504129;32;34578;-67
2022/06/17 13:13:52;;;;;;;4.72;1.10;;;;;;;34.69;22.55;100700.75;5532391;32;34293;-66
2022/06/17 13:17:24;;;;;;;2.25;1.10;;;;;;;35.78;21.47;100697.87;5531333;32;33930;-67
2022/06/17 13:20:53;;;;;;;6.90;1.25;;;;;;;33.83;24.08;100700.34;5531790;32;34193;-66
2022/06/17 13:24:08;;;;;;;4.55;1.50;;;;;;;34.91;23.25;100702.56;5531224;32;34576;-67
2022/06/17 13:27:20;;;;;;;7.55;1.25;;;;;;;33.63;24.52;100714.59;5531546;32;32471;-68
2022/06/17 13:30:32;;;;;;;2.97;1.10;;;;;;;31.62;26.86;100701.09;5531777;32;34025;-66
2022/06/17 13:34:03;;;;;;;2.25;1.10;;;;;;;31.89;24.93;100704.75;5530837;32;33068;-66
2022/06/17 13:37:20;;;;;;;4.00;0.80;;;;;;;34.03;22.54;100721.81;5530924;32;34229;-68
2022/06/17 13:40:39;;;;;;;4.40;0.95;;;;;;;33.43;20.21;100704.91;5531817;32;34606;-66
2022/06/17 13:44:24;;;;;;;1.40;0.93;;;;;;;33.98;20.14;100710.97;5531462;32;34582;-66
2022/06/17 13:48:00;;;;;;;1.98;1.00;;;;;;;34.98;19.11;100697.38;5453908;32;34227;-65
2022/06/17 13:51:21;;;;;;;3.55;1.20;;;;;;;34.22;20.34;100702.34;5453231;32;34235;-66
2022/06/17 13:54:49;;;;;;;1.83;0.90;;;;;;;34.93;20.19;100688.47;5453370;32;35372;-65
2022/06/17 13:58:33;;;;;;;2.83;1.00;;;;;;;34.60;20.79;100710.09;5453709;32;33948;-65
2022/06/17 14:01:41;;;;;;;1.95;1.27;;;;;;;33.15;22.56;100703.34;5453516;32;35080;-65
2022/06/17 14:05:07;;;;;;;5.82;1.10;;;;;;;32.75;23.00;100696.81;5453394;32;33761;-66
2022/06/17 14:08:14;;;;;;;1.85;1.05;;;;;;;33.76;22.44;100710.16;5453870;32;34601;-67
2022/06/17 14:11:37;;;;;;;4.00;1.30;;;;;;;33.35;22.69;100702.09;5453371;32;33821;-67
2022/06/17 14:14:49;;;;;;;1.52;1.10;;;;;;;34.66;21.78;100684.84;5451693;32;33981;-68
2022/06/17 14:18:01;;;;;;;4.62;1.20;;;;;;;32.90;23.77;100677.25;5490228;32;33792;-66
2022/06/17 14:21:09;;;;;;;4.78;1.12;;;;;;;33.52;23.31;100680.19;5530563;32;34050;-65
2022/06/17 14:24:33;;;;;;;1.65;1.10;;;;;;;33.28;23.79;100676.94;5530937;32;34690;-66
2022/06/17 14:27:35;;;;;;;1.90;1.27;;;;;;;31.69;26.17;100674.13;5530825;32;34897;-66
2022/06/17 14:30:47;;;;;;;1.83;0.95;;;;;;;30.00;28.28;100662.16;5530796;32;34442;-65
2022/06/17 14:33:53;;;;;;;1.35;0.80;;;;;;;30.18;28.33;100667.69;5530207;32;34248;-65
2022/06/17 14:37:03;;;;;;;2.30;0.93;;;;;;;30.49;27.17;100657.22;5531056;32;34137;-66
2022/06/17 14:40:15;;;;;;;1.75;1.00;;;;;;;32.88;24.92;100686.91;5530918;32;34156;-64
2022/06/17 14:43:23;;;;;;;2.12;1.00;;;;;;;33.28;24.49;100680.50;5531107;32;33998;-66
2022/06/17 14:46:25;;;;;;;1.00;0.88;;;;;;;32.06;26.35;100681.41;5530259;32;32400;-66
2022/06/17 14:49:43;;;;;;;3.45;1.52;;;;;;;31.59;26.74;100666.88;5531054;32;35237;-67
2022/06/17 14:52:54;;;;;;;1.40;1.00;;;;;;;31.67;26.75;100674.41;5530736;32;33999;-66
2022/06/17 14:55:59;;;;;;;1.58;0.90;;;;;;;33.62;24.25;100675.25;5530721;32;33956;-66
2022/06/17 14:59:23;;;;;;;3.80;1.10;;;;;;;33.27;24.13;100673.38;5529986;32;34124;-67